DLH400 EDDF-KJFK
Flight info
| Callsign | DLH400 |
|---|---|
| Flight time | N/A |
| Altitude | 36000 |
| Route | OBOKA5G OBOKA Z28 DIBIR DCT BUDIP DCT ALFEN DCT GODOS DCT EVNAL DCT ETILO/M083F360 DCT 5930N02000W 60N030W 59N040W 57N050W DCT HOIST/N0476F360 N748B QUBIS/N0468F380 DCT ENE PARCH4 |
| Aircraft | A346/H-SDE2E3FGHIJ3J4J5M1RWXY/LB1D1 |
Departure
| Time | 2026-04-16 07:34 |
|---|---|
| Airport | Frankfurt Main Airport (EDDF) |
Arrival
| Time | N/A |
|---|---|
| Airport | John F. Kennedy International Airport (KJFK) |
| Time | Latitude | Longitude | Altitude | Speed | Heading |
|---|---|---|---|---|---|
| 2026-04-16 07:02 | 50.04666 | 8.56049 | 364 ft | 0 kts | 340° |
| 2026-04-16 07:19 | 50.04661 | 8.56052 | 364 ft | 4 kts | 338° |
| 2026-04-16 07:20 | 50.04637 | 8.56070 | 368 ft | 4 kts | 327° |
| 2026-04-16 07:20 | 50.04618 | 8.56095 | 368 ft | 4 kts | 310° |
| 2026-04-16 07:20 | 50.04605 | 8.56127 | 369 ft | 4 kts | 287° |
| 2026-04-16 07:20 | 50.04603 | 8.56161 | 370 ft | 4 kts | 260° |
| 2026-04-16 07:21 | 50.04606 | 8.56180 | 370 ft | 0 kts | 250° |
| 2026-04-16 07:21 | 50.04599 | 8.56150 | 370 ft | 4 kts | 250° |
| 2026-04-16 07:21 | 50.04590 | 8.56111 | 369 ft | 4 kts | 249° |
| 2026-04-16 07:21 | 50.04581 | 8.56077 | 367 ft | 1 kts | 249° |
| 2026-04-16 07:24 | 50.04581 | 8.56076 | 367 ft | 0 kts | 249° |
| 2026-04-16 07:25 | 50.04575 | 8.56050 | 368 ft | 5 kts | 249° |
| 2026-04-16 07:25 | 50.04545 | 8.55982 | 367 ft | 10 kts | 217° |
| 2026-04-16 07:25 | 50.04465 | 8.55927 | 369 ft | 15 kts | 199° |
| 2026-04-16 07:25 | 50.04348 | 8.55929 | 368 ft | 20 kts | 163° |
| 2026-04-16 07:26 | 50.04256 | 8.55944 | 368 ft | 15 kts | 204° |
| 2026-04-16 07:26 | 50.04164 | 8.55934 | 366 ft | 4 kts | 162° |
| 2026-04-16 07:26 | 50.04117 | 8.55958 | 365 ft | 10 kts | 162° |
| 2026-04-16 07:26 | 50.04084 | 8.56056 | 366 ft | 14 kts | 86° |
| 2026-04-16 07:27 | 50.04113 | 8.56222 | 367 ft | 18 kts | 69° |
| 2026-04-16 07:27 | 50.04160 | 8.56413 | 366 ft | 19 kts | 70° |
| 2026-04-16 07:27 | 50.04207 | 8.56615 | 366 ft | 20 kts | 70° |
| 2026-04-16 07:27 | 50.04257 | 8.56823 | 371 ft | 21 kts | 69° |
| 2026-04-16 07:28 | 50.04302 | 8.57012 | 372 ft | 16 kts | 69° |
| 2026-04-16 07:28 | 50.04341 | 8.57175 | 371 ft | 16 kts | 69° |
| 2026-04-16 07:28 | 50.04382 | 8.57345 | 373 ft | 17 kts | 69° |
| 2026-04-16 07:28 | 50.04426 | 8.57531 | 372 ft | 19 kts | 70° |
| 2026-04-16 07:29 | 50.04473 | 8.57729 | 377 ft | 20 kts | 70° |
| 2026-04-16 07:29 | 50.04525 | 8.57946 | 374 ft | 22 kts | 70° |
| 2026-04-16 07:29 | 50.04582 | 8.58186 | 376 ft | 24 kts | 70° |
| 2026-04-16 07:29 | 50.04636 | 8.58409 | 379 ft | 14 kts | 69° |
| 2026-04-16 07:30 | 50.04654 | 8.58509 | 381 ft | 2 kts | 104° |
| 2026-04-16 07:30 | 50.04647 | 8.58531 | 381 ft | 1 kts | 124° |
| 2026-04-16 07:30 | 50.04646 | 8.58534 | 381 ft | 0 kts | 127° |
| 2026-04-16 07:31 | 50.04636 | 8.58549 | 380 ft | 5 kts | 140° |
| 2026-04-16 07:31 | 50.04596 | 8.58584 | 381 ft | 8 kts | 156° |
| 2026-04-16 07:31 | 50.04531 | 8.58614 | 380 ft | 11 kts | 184° |
| 2026-04-16 07:32 | 50.04471 | 8.58522 | 383 ft | 12 kts | 248° |
| 2026-04-16 07:32 | 50.04467 | 8.58507 | 380 ft | 0 kts | 249° |
| 2026-04-16 07:32 | 50.04421 | 8.58318 | 379 ft | 46 kts | 249° |
| 2026-04-16 07:33 | 50.04239 | 8.57555 | 373 ft | 101 kts | 250° |
| 2026-04-16 07:33 | 50.03936 | 8.56291 | 366 ft | 147 kts | 249° |
| 2026-04-16 07:33 | 50.03538 | 8.54620 | 376 ft | 182 kts | 248° |
| 2026-04-16 07:33 | 50.03095 | 8.52728 | 762 ft | 189 kts | 249° |
| 2026-04-16 07:34 | 50.02685 | 8.50758 | 1274 ft | 193 kts | 259° |
| 2026-04-16 07:34 | 50.02663 | 8.48662 | 1839 ft | 194 kts | 275° |
| 2026-04-16 07:34 | 50.02832 | 8.46560 | 2315 ft | 198 kts | 277° |
| 2026-04-16 07:34 | 50.02898 | 8.44340 | 2568 ft | 211 kts | 267° |
| 2026-04-16 07:35 | 50.02712 | 8.41983 | 2822 ft | 227 kts | 261° |
| 2026-04-16 07:35 | 50.02434 | 8.39476 | 3149 ft | 243 kts | 260° |
| 2026-04-16 07:35 | 50.02118 | 8.36805 | 3585 ft | 253 kts | 260° |
| 2026-04-16 07:35 | 50.01792 | 8.34084 | 4204 ft | 257 kts | 260° |
| 2026-04-16 07:36 | 50.01466 | 8.31366 | 4912 ft | 259 kts | 260° |
| 2026-04-16 07:36 | 50.01338 | 8.28552 | 5599 ft | 261 kts | 277° |
| 2026-04-16 07:36 | 50.01800 | 8.25829 | 6325 ft | 262 kts | 292° |
| 2026-04-16 07:36 | 50.02549 | 8.23226 | 7049 ft | 264 kts | 294° |
| 2026-04-16 07:37 | 50.03336 | 8.20606 | 7734 ft | 266 kts | 294° |
| 2026-04-16 07:37 | 50.04120 | 8.17970 | 8457 ft | 269 kts | 294° |
| 2026-04-16 07:37 | 50.04904 | 8.15301 | 9190 ft | 271 kts | 294° |
| 2026-04-16 07:37 | 50.05772 | 8.12657 | 9925 ft | 274 kts | 301° |
| 2026-04-16 07:38 | 50.06837 | 8.10172 | 10585 ft | 278 kts | 307° |
| 2026-04-16 07:38 | 50.08048 | 8.07773 | 10977 ft | 292 kts | 308° |
| 2026-04-16 07:38 | 50.09381 | 8.05200 | 11289 ft | 309 kts | 308° |
| 2026-04-16 07:38 | 50.10752 | 8.02553 | 11571 ft | 325 kts | 308° |
| 2026-04-16 07:39 | 50.12213 | 7.99727 | 11854 ft | 341 kts | 308° |
| 2026-04-16 07:39 | 50.13738 | 7.96764 | 12151 ft | 357 kts | 308° |
| 2026-04-16 07:39 | 50.15319 | 7.93689 | 12567 ft | 368 kts | 308° |
| 2026-04-16 07:39 | 50.16935 | 7.90541 | 13239 ft | 371 kts | 307° |
| 2026-04-16 07:40 | 50.18535 | 7.87417 | 13964 ft | 374 kts | 307° |
| 2026-04-16 07:40 | 50.20170 | 7.84221 | 14574 ft | 377 kts | 307° |
| 2026-04-16 07:40 | 50.21814 | 7.80999 | 15210 ft | 380 kts | 307° |
| 2026-04-16 07:40 | 50.23477 | 7.77764 | 15858 ft | 382 kts | 309° |
| 2026-04-16 07:41 | 50.25387 | 7.74836 | 16467 ft | 388 kts | 319° |
| 2026-04-16 07:41 | 50.27626 | 7.72434 | 17077 ft | 393 kts | 328° |
| 2026-04-16 07:41 | 50.30111 | 7.70550 | 17671 ft | 398 kts | 333° |
| 2026-04-16 07:41 | 50.32665 | 7.68815 | 18255 ft | 402 kts | 334° |
| 2026-04-16 07:42 | 50.35255 | 7.67077 | 18792 ft | 406 kts | 334° |
| 2026-04-16 07:42 | 50.37861 | 7.65313 | 19280 ft | 409 kts | 333° |
| 2026-04-16 07:42 | 50.40478 | 7.63526 | 19816 ft | 411 kts | 333° |
| 2026-04-16 07:42 | 50.43110 | 7.61719 | 20338 ft | 414 kts | 333° |
| 2026-04-16 07:43 | 50.45753 | 7.59901 | 20867 ft | 416 kts | 333° |
| 2026-04-16 07:43 | 50.48383 | 7.58087 | 21374 ft | 419 kts | 332° |
| 2026-04-16 07:43 | 50.51064 | 7.56236 | 21879 ft | 421 kts | 332° |
| 2026-04-16 07:43 | 50.53746 | 7.54311 | 22365 ft | 423 kts | 330° |
| 2026-04-16 07:44 | 50.56376 | 7.52152 | 22849 ft | 424 kts | 327° |
| 2026-04-16 07:44 | 50.58879 | 7.49807 | 23313 ft | 425 kts | 324° |
| 2026-04-16 07:44 | 50.61387 | 7.47278 | 23795 ft | 427 kts | 323° |
| 2026-04-16 07:44 | 50.63902 | 7.44697 | 24214 ft | 429 kts | 323° |
| 2026-04-16 07:45 | 50.66408 | 7.42116 | 24633 ft | 432 kts | 323° |
| 2026-04-16 07:45 | 50.68911 | 7.39538 | 25025 ft | 434 kts | 323° |
| 2026-04-16 07:45 | 50.71428 | 7.36879 | 25417 ft | 435 kts | 320° |
| 2026-04-16 07:45 | 50.73771 | 7.33824 | 25809 ft | 434 kts | 313° |
| 2026-04-16 07:46 | 50.75840 | 7.30422 | 26196 ft | 433 kts | 307° |
| 2026-04-16 07:46 | 50.77684 | 7.26654 | 26588 ft | 433 kts | 303° |
| 2026-04-16 07:46 | 50.79441 | 7.22758 | 26986 ft | 435 kts | 302° |
| 2026-04-16 07:46 | 50.81170 | 7.18867 | 27357 ft | 437 kts | 302° |
| 2026-04-16 07:47 | 50.82927 | 7.14902 | 27729 ft | 439 kts | 302° |
| 2026-04-16 07:47 | 50.84690 | 7.10927 | 28108 ft | 441 kts | 302° |
| 2026-04-16 07:47 | 50.86462 | 7.06933 | 28525 ft | 442 kts | 302° |
| 2026-04-16 07:47 | 50.88230 | 7.02942 | 29087 ft | 440 kts | 302° |
| 2026-04-16 07:48 | 50.89961 | 6.99035 | 29711 ft | 436 kts | 302° |
| 2026-04-16 07:48 | 50.91715 | 6.95074 | 30301 ft | 434 kts | 302° |
| 2026-04-16 07:48 | 50.93435 | 6.91182 | 30726 ft | 432 kts | 302° |
| 2026-04-16 07:48 | 50.95161 | 6.87273 | 31161 ft | 431 kts | 302° |
| 2026-04-16 07:49 | 50.96879 | 6.83373 | 31620 ft | 429 kts | 302° |
| 2026-04-16 07:49 | 50.98593 | 6.79479 | 32071 ft | 427 kts | 302° |
| 2026-04-16 07:49 | 51.00270 | 6.75662 | 32513 ft | 426 kts | 302° |
| 2026-04-16 07:49 | 51.01968 | 6.71795 | 32956 ft | 424 kts | 302° |
| 2026-04-16 07:50 | 51.03656 | 6.67943 | 33366 ft | 423 kts | 302° |
| 2026-04-16 07:50 | 51.05340 | 6.64096 | 33803 ft | 421 kts | 302° |
| 2026-04-16 07:50 | 51.06992 | 6.60314 | 34256 ft | 418 kts | 302° |
| 2026-04-16 07:50 | 51.08648 | 6.56518 | 34746 ft | 413 kts | 302° |
| 2026-04-16 07:51 | 51.10286 | 6.52756 | 35059 ft | 413 kts | 302° |
| 2026-04-16 07:51 | 51.11931 | 6.48968 | 35183 ft | 417 kts | 302° |
| 2026-04-16 07:51 | 51.13574 | 6.45177 | 35324 ft | 419 kts | 302° |
| 2026-04-16 07:51 | 51.15242 | 6.41328 | 35511 ft | 421 kts | 302° |
| 2026-04-16 07:52 | 51.16912 | 6.37472 | 35749 ft | 423 kts | 302° |
| 2026-04-16 07:52 | 51.20271 | 6.29695 | 35973 ft | 429 kts | 302° |
| 2026-04-16 07:52 | 51.21972 | 6.25746 | 36152 ft | 430 kts | 302° |
| 2026-04-16 07:53 | 51.23681 | 6.21774 | 36193 ft | 432 kts | 302° |
| 2026-04-16 07:53 | 51.27065 | 6.13890 | 36197 ft | 429 kts | 301° |
| 2026-04-16 07:54 | 51.30364 | 6.05968 | 36193 ft | 428 kts | 300° |
| 2026-04-16 07:54 | 51.33643 | 5.97972 | 36185 ft | 428 kts | 302° |
| 2026-04-16 07:55 | 51.37240 | 5.90393 | 36190 ft | 430 kts | 307° |